Time;durP1;ratioP1;P1;durP2;ratioP2;P2;SDS_P1;SDS_P2;PMS_P1;PMS_P2;Temp;Humidity;BMP_temperature;BMP_pressure;BME280_temperature;BME280_humidity;BME280_pressure;Samples;Min_cycle;Max_cycle;Signal;HPM_P1;HPM_P2
2021/05/07 00:01:18;;;;;;;4.67;3.70;;;;;;;5.52;100.00;99703.84;4963093;28;20933;-73
2021/05/07 00:03:44;;;;;;;4.27;3.47;;;;;;;5.49;100.00;99714.28;4957020;28;20229;-73
2021/05/07 00:06:11;;;;;;;4.60;3.30;;;;;;;5.52;100.00;99709.03;4960852;28;20222;-73
2021/05/07 00:08:39;;;;;;;5.17;3.80;;;;;;;5.53;100.00;99702.13;4961712;28;20209;-73
2021/05/07 00:11:07;;;;;;;4.00;3.37;;;;;;;5.53;100.00;99702.97;4967472;28;20586;-73
2021/05/07 00:13:35;;;;;;;5.47;3.60;;;;;;;5.48;100.00;99691.88;4958993;28;20197;-73
2021/05/07 00:16:01;;;;;;;5.63;3.23;;;;;;;5.53;100.00;99686.63;4964068;28;20700;-73
2021/05/07 00:18:27;;;;;;;4.93;3.73;;;;;;;5.55;100.00;99682.28;4966619;28;20304;-72
2021/05/07 00:20:53;;;;;;;5.07;4.03;;;;;;;5.54;100.00;99685.72;4961045;28;20249;-73
2021/05/07 00:23:19;;;;;;;4.27;3.87;;;;;;;5.51;100.00;99676.31;4962116;28;20205;-73
2021/05/07 00:25:46;;;;;;;7.27;4.07;;;;;;;5.52;100.00;99677.16;4966319;28;20194;-73
2021/05/07 00:28:14;;;;;;;5.37;4.00;;;;;;;5.52;100.00;99677.16;4968258;28;20206;-73
2021/05/07 00:30:41;;;;;;;5.00;3.93;;;;;;;5.50;100.00;99685.81;4967856;28;20218;-73
2021/05/07 00:33:08;;;;;;;4.93;3.37;;;;;;;5.43;100.00;99680.78;4953602;28;20232;-73
2021/05/07 00:35:35;;;;;;;5.23;3.67;;;;;;;5.41;100.00;99679.97;4941088;28;20210;-72
2021/05/07 00:38:02;;;;;;;4.67;4.07;;;;;;;5.43;100.00;99678.19;4962822;28;20710;-73
2021/05/07 00:40:28;;;;;;;4.23;3.83;;;;;;;5.43;100.00;99670.44;4965171;28;20228;-73
2021/05/07 00:42:55;;;;;;;4.40;4.00;;;;;;;5.36;100.00;99664.53;4960124;28;20217;-73
2021/05/07 00:45:24;;;;;;;4.47;3.97;;;;;;;5.36;100.00;99669.69;4983511;28;20211;-73
2021/05/07 00:47:57;;;;;;;5.00;4.47;;;;;;;5.32;100.00;99661.16;4962293;28;20233;-73
2021/05/07 00:50:26;;;;;;;6.83;4.17;;;;;;;5.30;100.00;99655.16;4965674;28;20672;-72
2021/05/07 00:52:54;;;;;;;4.57;3.97;;;;;;;5.29;100.00;99657.78;4965233;28;20249;-72
2021/05/07 00:55:20;;;;;;;5.70;4.73;;;;;;;5.26;100.00;99653.53;4967637;28;20202;-73
2021/05/07 00:57:46;;;;;;;5.60;4.27;;;;;;;5.24;100.00;99649.25;4964616;28;20208;-73
2021/05/07 01:00:13;;;;;;;5.13;4.00;;;;;;;5.22;100.00;99659.63;4965355;28;20241;-73
2021/05/07 01:02:40;;;;;;;6.13;4.03;;;;;;;5.20;100.00;99652.81;4957806;28;20902;-73
2021/05/07 01:05:09;;;;;;;5.20;4.37;;;;;;;5.16;100.00;99652.00;4950882;28;20206;-73
2021/05/07 01:07:36;;;;;;;6.03;4.30;;;;;;;5.15;100.00;99659.78;4956533;28;20571;-73
2021/05/07 01:10:05;;;;;;;4.93;4.10;;;;;;;5.15;100.00;99652.88;4960378;28;20276;-73
2021/05/07 01:12:32;;;;;;;4.10;3.70;;;;;;;5.13;100.00;99652.91;4963670;28;20218;-72
2021/05/07 01:15:00;;;;;;;4.90;4.40;;;;;;;5.13;100.00;99655.50;4966059;28;20212;-72
2021/05/07 01:17:27;;;;;;;5.00;4.30;;;;;;;5.11;100.00;99649.50;4963167;28;20202;-73
2021/05/07 01:19:55;;;;;;;6.33;4.17;;;;;;;5.09;100.00;99653.84;4961132;28;20223;-73
2021/05/07 01:22:22;;;;;;;5.67;4.13;;;;;;;5.05;100.00;99647.06;4978868;28;20195;-73
2021/05/07 01:24:48;;;;;;;4.60;3.63;;;;;;;5.05;100.00;99648.78;4957961;28;20249;-72
2021/05/07 01:27:14;;;;;;;5.17;3.77;;;;;;;5.01;100.00;99644.56;4964225;28;20198;-73
2021/05/07 01:29:40;;;;;;;4.67;4.20;;;;;;;4.97;100.00;99638.59;4962087;28;20713;-72
2021/05/07 01:32:07;;;;;;;4.10;3.70;;;;;;;4.95;100.00;99636.94;4961355;28;20333;-71
2021/05/07 01:34:33;;;;;;;5.43;4.23;;;;;;;4.95;100.00;99640.34;4962672;28;20200;-72
2021/05/07 01:36:58;;;;;;;4.40;3.90;;;;;;;4.91;100.00;99639.56;4964971;28;20206;-72
2021/05/07 01:39:25;;;;;;;4.70;4.13;;;;;;;4.87;100.00;99639.63;4961578;28;20205;-72
2021/05/07 01:41:51;;;;;;;4.97;3.80;;;;;;;4.87;100.00;99629.31;4964769;28;20214;-72
2021/05/07 01:44:18;;;;;;;4.23;3.77;;;;;;;4.84;100.00;99631.97;4968172;28;20211;-72
2021/05/07 01:46:44;;;;;;;5.00;4.47;;;;;;;4.75;100.00;99640.72;4963449;28;20245;-71
2021/05/07 01:49:10;;;;;;;4.27;3.53;;;;;;;4.73;100.00;99648.50;4962093;28;20299;-72
2021/05/07 01:51:36;;;;;;;5.97;4.17;;;;;;;4.68;100.00;99649.47;4964669;28;20772;-71
2021/05/07 01:54:03;;;;;;;5.80;4.23;;;;;;;4.66;100.00;99648.63;4955844;28;20215;-72
2021/05/07 01:56:30;;;;;;;5.13;4.30;;;;;;;4.60;100.00;99648.75;4949419;28;20198;-71
2021/05/07 01:58:56;;;;;;;7.53;4.03;;;;;;;4.57;100.00;99648.78;4965685;28;20242;-72
2021/05/07 02:01:22;;;;;;;5.40;3.37;;;;;;;4.58;100.00;99646.19;4962197;28;20222;-72
2021/05/07 02:03:51;;;;;;;6.83;4.20;;;;;;;4.52;100.00;99646.28;4972287;28;20892;-72
2021/05/07 02:06:25;;;;;;;7.10;3.97;;;;;;;4.47;100.00;99650.69;4961438;28;20240;-71
2021/05/07 02:08:52;;;;;;;4.43;3.87;;;;;;;4.47;100.00;99646.38;4955889;28;20211;-73
2021/05/07 02:11:18;;;;;;;4.60;4.00;;;;;;;4.43;100.00;99655.03;4959026;28;20260;-72
2021/05/07 02:13:44;;;;;;;3.97;3.50;;;;;;;4.42;100.00;99640.44;4955109;28;20201;-73
2021/05/07 02:16:12;;;;;;;5.47;4.03;;;;;;;4.43;100.00;99641.28;4961010;28;20233;-74
2021/05/07 02:18:40;;;;;;;6.30;4.00;;;;;;;4.39;100.00;99642.22;4958142;28;20309;-74
2021/05/07 02:21:11;;;;;;;4.30;3.63;;;;;;;4.35;100.00;99642.25;4965227;28;20254;-72
2021/05/07 02:23:37;;;;;;;4.90;4.00;;;;;;;4.28;100.00;99655.28;4960477;28;20202;-74
2021/05/07 02:26:03;;;;;;;5.53;4.50;;;;;;;4.23;100.00;99651.94;4963795;28;20342;-74
2021/05/07 02:28:39;;;;;;;4.63;4.10;;;;;;;4.22;100.00;99657.94;4959314;28;20314;-74
2021/05/07 02:31:05;;;;;;;6.37;4.60;;;;;;;4.24;100.00;99654.50;4961807;28;20226;-73
2021/05/07 02:33:37;;;;;;;5.10;4.00;;;;;;;4.24;100.00;99654.50;4960873;28;20213;-72
2021/05/07 02:36:05;;;;;;;5.37;4.53;;;;;;;4.21;100.00;99654.53;4965673;28;20281;-73
2021/05/07 02:38:31;;;;;;;4.97;3.80;;;;;;;4.19;100.00;99651.13;4960598;28;20221;-73
2021/05/07 02:40:57;;;;;;;6.57;4.50;;;;;;;4.22;100.00;99663.09;4959323;28;20230;-73
2021/05/07 02:43:23;;;;;;;6.87;4.20;;;;;;;4.16;100.00;99656.31;4963148;28;20255;-74
2021/05/07 02:45:49;;;;;;;9.07;4.23;;;;;;;4.13;100.00;99656.38;4960631;28;20260;-74
2021/05/07 02:48:16;;;;;;;4.70;4.00;;;;;;;4.12;100.00;99658.09;4960451;28;20209;-74
2021/05/07 02:50:42;;;;;;;7.60;4.63;;;;;;;4.19;100.00;99666.59;4961552;28;21064;-73
2021/05/07 02:53:08;;;;;;;5.27;4.27;;;;;;;4.20;100.00;99670.03;4962146;28;20268;-74
2021/05/07 02:55:34;;;;;;;5.27;4.40;;;;;;;4.23;100.00;99662.25;4961110;28;20209;-74
2021/05/07 02:58:03;;;;;;;7.00;4.50;;;;;;;4.26;100.00;99662.22;4967010;28;20260;-73
2021/05/07 03:00:29;;;;;;;6.13;4.73;;;;;;;4.28;100.00;99663.88;4959263;28;20636;-74
2021/05/07 03:02:55;;;;;;;6.73;5.03;;;;;;;4.26;100.00;99665.63;4963933;28;20341;-74
2021/05/07 03:05:21;;;;;;;5.13;4.47;;;;;;;4.25;100.00;99666.50;4961708;28;20205;-73
2021/05/07 03:07:47;;;;;;;5.30;4.60;;;;;;;4.26;100.00;99673.38;4942935;28;20682;-74
2021/05/07 03:10:14;;;;;;;5.57;4.60;;;;;;;4.25;100.00;99675.97;4965737;28;20304;-74
2021/05/07 03:12:40;;;;;;;6.73;4.70;;;;;;;4.25;100.00;99675.97;4952114;28;20219;-73
2021/05/07 03:15:07;;;;;;;7.20;4.97;;;;;;;4.17;100.00;99678.69;4959186;28;20213;-73
2021/05/07 03:17:33;;;;;;;5.67;4.40;;;;;;;4.28;100.00;99675.94;4960323;28;20257;-74
2021/05/07 03:19:59;;;;;;;7.87;4.83;;;;;;;4.26;100.00;99680.28;4961874;28;20241;-74
2021/05/07 03:22:26;;;;;;;6.80;5.13;;;;;;;4.20;100.00;99683.78;4961029;28;20285;-74
2021/05/07 03:24:52;;;;;;;6.20;4.77;;;;;;;4.19;100.00;99689.81;4960606;28;20651;-72
2021/05/07 03:27:19;;;;;;;6.10;4.33;;;;;;;4.18;100.00;99688.09;4959684;28;20213;-72
2021/05/07 03:29:46;;;;;;;6.97;5.10;;;;;;;4.20;100.00;99701.00;4963314;28;20246;-72
2021/05/07 03:32:12;;;;;;;10.50;5.00;;;;;;;4.22;100.00;99702.69;4958463;28;20227;-74
2021/05/07 03:34:38;;;;;;;5.27;4.30;;;;;;;4.22;100.00;99705.28;4956773;28;20248;-74
2021/05/07 03:37:04;;;;;;;5.93;4.60;;;;;;;4.29;100.00;99703.44;4961773;28;20236;-73
2021/05/07 03:39:31;;;;;;;8.47;5.27;;;;;;;4.30;100.00;99698.25;4963908;28;20784;-74
2021/05/07 03:41:57;;;;;;;7.73;5.17;;;;;;;4.32;100.00;99706.81;4966255;28;20225;-74
2021/05/07 03:44:23;;;;;;;6.33;4.83;;;;;;;4.35;100.00;99711.09;4959811;28;20186;-73
2021/05/07 03:46:49;;;;;;;6.63;4.80;;;;;;;4.35;100.00;99708.50;4960868;28;20671;-74
2021/05/07 03:49:15;;;;;;;5.97;4.93;;;;;;;4.42;100.00;99704.13;4965192;28;20236;-73
2021/05/07 03:51:41;;;;;;;7.80;5.37;;;;;;;4.43;100.00;99713.53;4959492;28;20221;-73
2021/05/07 03:54:07;;;;;;;8.93;5.20;;;;;;;4.44;100.00;99713.53;4964231;28;20206;-74
2021/05/07 03:56:33;;;;;;;6.47;4.97;;;;;;;4.44;100.00;99717.84;4958010;28;20268;-74
2021/05/07 03:58:59;;;;;;;7.53;4.97;;;;;;;4.45;100.00;99712.66;4965995;28;20218;-73
2021/05/07 04:01:25;;;;;;;7.97;5.17;;;;;;;4.45;100.00;99717.81;4961444;28;20627;-74
2021/05/07 04:03:51;;;;;;;7.10;5.30;;;;;;;4.47;100.00;99721.22;4962023;28;20620;-74
2021/05/07 04:06:19;;;;;;;7.33;5.80;;;;;;;4.49;100.00;99729.78;4962253;28;20190;-74
2021/05/07 04:08:51;;;;;;;6.00;5.40;;;;;;;4.50;100.00;99728.94;4964318;28;20249;-74
2021/05/07 04:11:25;;;;;;;7.20;5.77;;;;;;;4.53;100.00;99734.03;4957699;28;20855;-74
2021/05/07 04:13:52;;;;;;;7.57;5.63;;;;;;;4.58;100.00;99728.81;4966462;28;20651;-74
2021/05/07 04:16:18;;;;;;;5.70;5.10;;;;;;;4.62;100.00;99739.94;4959084;28;20690;-74
2021/05/07 04:18:44;;;;;;;6.30;5.10;;;;;;;4.63;100.00;99737.31;4960797;28;20221;-73
2021/05/07 04:21:13;;;;;;;8.03;5.50;;;;;;;4.65;100.00;99740.72;4962633;28;20226;-74
2021/05/07 04:23:38;;;;;;;8.03;5.60;;;;;;;4.69;100.00;99742.38;4960157;28;20662;-74
2021/05/07 04:26:04;;;;;;;8.97;6.27;;;;;;;4.73;100.00;99746.63;4959533;28;20201;-74
2021/05/07 04:28:31;;;;;;;6.97;6.00;;;;;;;4.77;100.00;99756.91;4959179;28;20250;-74
2021/05/07 04:30:58;;;;;;;7.80;6.20;;;;;;;4.78;100.00;99751.72;4960369;28;20325;-74
2021/05/07 04:33:24;;;;;;;8.73;5.83;;;;;;;4.83;100.00;99760.22;4963731;28;20226;-74
2021/05/07 04:35:50;;;;;;;7.40;5.67;;;;;;;4.87;100.00;99761.03;4959734;28;20208;-74
2021/05/07 04:38:16;;;;;;;9.30;6.47;;;;;;;4.90;100.00;99766.16;4963384;28;20589;-74
2021/05/07 04:40:42;;;;;;;7.97;6.20;;;;;;;4.95;100.00;99760.94;4959634;28;20267;-74
2021/05/07 04:43:07;;;;;;;8.37;6.03;;;;;;;4.98;100.00;99766.03;4959617;28;20203;-74
2021/05/07 04:45:34;;;;;;;12.20;6.87;;;;;;;4.98;100.00;99772.06;4961883;28;20741;-74
2021/05/07 04:48:02;;;;;;;10.90;6.47;;;;;;;5.01;100.00;99768.56;4962030;28;20277;-72
2021/05/07 04:50:28;;;;;;;8.10;5.93;;;;;;;5.01;100.00;99773.72;4960493;28;20305;-74
2021/05/07 04:52:54;;;;;;;10.07;7.10;;;;;;;5.01;100.00;99772.00;4963504;28;20281;-74
2021/05/07 04:55:20;;;;;;;10.23;6.83;;;;;;;5.05;100.00;99772.81;4964854;28;20275;-74
2021/05/07 04:57:46;;;;;;;9.57;6.60;;;;;;;5.07;100.00;99779.66;4964526;28;20205;-73
2021/05/07 05:00:13;;;;;;;7.80;5.87;;;;;;;5.10;100.00;99786.47;4962836;28;20223;-74
2021/05/07 05:02:39;;;;;;;6.87;6.00;;;;;;;5.14;100.00;99785.56;4966946;28;20714;-73
2021/05/07 05:05:07;;;;;;;8.70;5.87;;;;;;;5.19;100.00;99781.19;4966771;28;20296;-73
2021/05/07 05:07:34;;;;;;;6.10;5.10;;;;;;;5.21;100.00;99789.75;4957884;28;20204;-73
2021/05/07 05:10:00;;;;;;;7.10;5.23;;;;;;;5.25;100.00;99787.97;4961825;28;20304;-73
2021/05/07 05:12:26;;;;;;;8.23;5.63;;;;;;;5.27;100.00;99791.38;4962911;28;20225;-73
2021/05/07 05:14:52;;;;;;;7.23;5.17;;;;;;;5.29;100.00;99789.59;4963491;28;20202;-73
2021/05/07 05:17:18;;;;;;;6.90;4.83;;;;;;;5.29;100.00;99797.34;4965285;28;20572;-73
2021/05/07 05:19:46;;;;;;;7.77;4.60;;;;;;;5.25;100.00;99800.88;4963256;28;20300;-73
2021/05/07 05:22:13;;;;;;;5.67;4.20;;;;;;;5.21;100.00;99797.50;4962484;28;20256;-73
2021/05/07 05:24:39;;;;;;;7.73;4.90;;;;;;;5.19;100.00;99794.09;4961229;28;20208;-73
2021/05/07 05:27:05;;;;;;;5.87;4.80;;;;;;;5.22;100.00;99793.19;4962022;28;20233;-73
2021/05/07 05:29:31;;;;;;;7.00;4.87;;;;;;;5.21;100.00;99800.09;4962745;28;20210;-73
2021/05/07 05:31:57;;;;;;;6.87;5.13;;;;;;;5.23;100.00;99797.47;4962368;28;20228;-73
2021/05/07 05:34:23;;;;;;;5.17;4.63;;;;;;;5.23;100.00;99798.31;4979004;28;20670;-73
2021/05/07 05:36:49;;;;;;;7.53;5.00;;;;;;;5.25;100.00;99800.88;4965251;28;20254;-73
2021/05/07 05:39:16;;;;;;;6.43;4.53;;;;;;;5.26;100.00;99800.88;4962043;28;20719;-73
2021/05/07 05:41:42;;;;;;;6.10;4.67;;;;;;;5.27;100.00;99801.72;4954881;28;20225;-73
2021/05/07 05:44:09;;;;;;;5.23;4.03;;;;;;;5.27;100.00;99797.38;4963846;28;20556;-73
2021/05/07 05:46:36;;;;;;;5.40;4.13;;;;;;;5.31;100.00;99801.63;4977545;28;20616;-73
2021/05/07 05:49:03;;;;;;;16.80;10.73;;;;;;;5.34;100.00;99799.88;4965761;28;20213;-73
2021/05/07 05:51:29;;;;;;;7.47;5.63;;;;;;;5.41;100.00;99794.56;4962130;28;20627;-73
2021/05/07 05:53:55;;;;;;;7.00;5.07;;;;;;;5.47;100.00;99798.75;4960962;28;20545;-73
2021/05/07 05:56:24;;;;;;;7.70;5.47;;;;;;;5.49;100.00;99808.22;4963219;28;20698;-73
2021/05/07 05:58:50;;;;;;;7.53;4.97;;;;;;;5.54;100.00;99804.66;4962906;28;20213;-73
2021/05/07 06:01:16;;;;;;;6.03;5.20;;;;;;;5.51;100.00;99810.75;4957483;28;20222;-73
2021/05/07 06:03:42;;;;;;;8.87;5.70;;;;;;;5.53;100.00;99814.16;4957797;28;20213;-73
2021/05/07 06:06:08;;;;;;;5.23;4.63;;;;;;;5.53;100.00;99819.34;4960004;28;20742;-73
2021/05/07 06:08:34;;;;;;;5.37;4.67;;;;;;;5.55;100.00;99816.72;4961161;28;20206;-73
2021/05/07 06:11:00;;;;;;;5.87;4.60;;;;;;;5.56;100.00;99821.88;4966546;28;20694;-73
2021/05/07 06:13:27;;;;;;;4.83;4.17;;;;;;;5.50;100.00;99822.84;4961071;28;20217;-73
2021/05/07 06:15:53;;;;;;;4.63;3.97;;;;;;;5.52;100.00;99821.94;4967039;28;20729;-73
2021/05/07 06:18:19;;;;;;;5.60;4.07;;;;;;;5.48;100.00;99827.16;4963948;28;20234;-73
2021/05/07 06:20:45;;;;;;;4.43;3.33;;;;;;;5.49;100.00;99820.28;4966460;28;20267;-73
2021/05/07 06:23:11;;;;;;;5.53;4.27;;;;;;;5.54;100.00;99825.34;4959733;28;20462;-73
2021/05/07 06:25:38;;;;;;;6.57;3.90;;;;;;;5.57;100.00;99820.97;4962650;28;20210;-73
2021/05/07 06:28:04;;;;;;;5.93;4.83;;;;;;;5.59;100.00;99826.97;4964855;28;20920;-73
2021/05/07 06:30:31;;;;;;;7.13;5.10;;;;;;;5.61;100.00;99826.94;4956305;28;21358;-73
2021/05/07 06:32:57;;;;;;;5.30;4.27;;;;;;;5.62;100.00;99826.09;4962104;28;20254;-73
2021/05/07 06:35:23;;;;;;;5.90;4.83;;;;;;;5.61;100.00;99821.78;4958386;28;20210;-73
2021/05/07 06:37:49;;;;;;;4.97;4.47;;;;;;;5.62;100.00;99826.94;4961907;28;20636;-74
2021/05/07 06:40:16;;;;;;;6.20;5.07;;;;;;;5.62;100.00;99823.50;4960741;28;20226;-73
2021/05/07 06:42:42;;;;;;;5.63;4.87;;;;;;;5.64;100.00;99827.75;4963782;28;20209;-73
2021/05/07 06:45:11;;;;;;;7.03;4.87;;;;;;;5.64;100.00;99832.06;4959713;28;20269;-73
2021/05/07 06:47:38;;;;;;;6.17;5.13;;;;;;;5.65;100.00;99823.44;4962973;28;20728;-73
2021/05/07 06:50:05;;;;;;;6.37;5.07;;;;;;;5.61;100.00;99830.41;4959676;28;20233;-73
2021/05/07 06:52:32;;;;;;;7.93;5.60;;;;;;;5.61;100.00;99834.72;4960230;28;20221;-73
2021/05/07 06:54:58;;;;;;;7.20;5.10;;;;;;;5.58;100.00;99832.19;4962588;28;20305;-73
2021/05/07 06:57:24;;;;;;;6.77;5.30;;;;;;;5.60;100.00;99845.94;4962044;28;20222;-73
2021/05/07 06:59:50;;;;;;;6.03;5.13;;;;;;;5.59;100.00;99839.06;4957491;28;20602;-73
2021/05/07 07:02:17;;;;;;;5.97;5.00;;;;;;;5.61;100.00;99845.06;4961236;28;20306;-73
2021/05/07 07:04:45;;;;;;;7.43;4.77;;;;;;;5.58;100.00;99847.72;4958024;28;20203;-73
2021/05/07 07:07:12;;;;;;;7.40;5.37;;;;;;;5.58;100.00;99853.72;4959257;28;20416;-73
2021/05/07 07:09:38;;;;;;;8.63;5.63;;;;;;;5.56;100.00;99854.63;4962112;28;20206;-73
2021/05/07 07:12:04;;;;;;;7.60;5.57;;;;;;;5.54;100.00;99849.50;4959144;28;20225;-73
2021/05/07 07:14:30;;;;;;;8.07;5.83;;;;;;;5.55;100.00;99851.19;4966255;28;20209;-72
2021/05/07 07:16:56;;;;;;;7.73;5.93;;;;;;;5.57;100.00;99857.19;4960870;28;20222;-72
2021/05/07 07:19:22;;;;;;;8.43;6.27;;;;;;;5.57;100.00;99857.19;4964469;28;20205;-72
2021/05/07 07:21:49;;;;;;;9.17;6.50;;;;;;;5.59;100.00;99859.75;4976707;28;20215;-72
2021/05/07 07:24:15;;;;;;;8.60;6.63;;;;;;;5.57;100.00;99870.13;4956070;28;20235;-72
2021/05/07 07:26:41;;;;;;;7.10;5.70;;;;;;;5.56;100.00;99862.38;4961455;28;20209;-72
2021/05/07 07:29:07;;;;;;;10.63;7.33;;;;;;;5.55;100.00;99869.28;4962449;28;20206;-72
2021/05/07 07:31:33;;;;;;;9.73;6.90;;;;;;;5.45;100.00;99870.31;4957674;28;20220;-72
2021/05/07 07:33:59;;;;;;;9.77;7.13;;;;;;;5.53;100.00;99868.47;4957453;28;20241;-72
2021/05/07 07:36:25;;;;;;;9.47;6.80;;;;;;;5.56;100.00;99872.72;4961695;28;20201;-72
2021/05/07 07:38:52;;;;;;;11.97;7.47;;;;;;;5.52;100.00;99878.84;4964589;28;20260;-72
2021/05/07 07:41:18;;;;;;;10.60;7.63;;;;;;;5.44;100.00;99884.16;4960937;28;20285;-72
2021/05/07 07:43:44;;;;;;;10.63;8.03;;;;;;;5.40;100.00;99885.06;4964421;28;20217;-72
2021/05/07 07:46:10;;;;;;;12.30;8.53;;;;;;;5.41;100.00;99885.03;4960132;28;20194;-72
2021/05/07 07:48:36;;;;;;;10.53;7.00;;;;;;;5.34;100.00;99895.53;4958667;28;20205;-72
2021/05/07 07:51:02;;;;;;;12.10;7.43;;;;;;;5.38;100.00;99894.59;4962279;28;20283;-72
2021/05/07 07:53:28;;;;;;;11.03;7.60;;;;;;;5.27;100.00;99902.50;4964732;28;20218;-72
2021/05/07 07:55:55;;;;;;;11.70;7.63;;;;;;;5.21;100.00;99910.38;4959803;28;20989;-72
2021/05/07 07:58:21;;;;;;;9.57;6.70;;;;;;;5.21;100.00;99913.81;4956602;28;21622;-72
2021/05/07 08:00:47;;;;;;;9.90;7.27;;;;;;;5.21;100.00;99915.56;4955559;28;20223;-72
2021/05/07 08:03:13;;;;;;;10.47;7.40;;;;;;;5.18;100.00;99907.84;4961498;28;20205;-72
2021/05/07 08:05:39;;;;;;;9.63;7.13;;;;;;;5.12;100.00;99914.81;4959113;28;20197;-72
2021/05/07 08:08:05;;;;;;;9.70;7.30;;;;;;;5.14;100.00;99917.38;4959508;28;20218;-72
2021/05/07 08:10:32;;;;;;;9.00;6.67;;;;;;;5.09;100.00;99909.66;4960150;28;20635;-72
2021/05/07 08:12:59;;;;;;;9.30;6.90;;;;;;;5.06;100.00;99925.22;4960956;28;20218;-72
2021/05/07 08:15:26;;;;;;;10.00;6.47;;;;;;;5.07;100.00;99926.94;4960608;28;20210;-72
2021/05/07 08:17:53;;;;;;;8.67;6.00;;;;;;;5.06;100.00;99920.03;4962307;28;20250;-72
2021/05/07 08:20:19;;;;;;;8.87;6.70;;;;;;;5.11;100.00;99925.16;4960142;28;20301;-72
2021/05/07 08:22:45;;;;;;;9.03;6.57;;;;;;;5.16;100.00;99930.28;4960884;28;20209;-72
2021/05/07 08:25:12;;;;;;;9.57;6.03;;;;;;;5.21;100.00;99931.06;4962888;28;20207;-72
2021/05/07 08:27:39;;;;;;;7.67;5.60;;;;;;;5.32;100.00;99927.41;4959119;28;20565;-72
2021/05/07 08:30:08;;;;;;;8.93;6.30;;;;;;;5.40;100.00;99927.31;4961504;28;20285;-72
2021/05/07 08:32:35;;;;;;;8.63;6.63;;;;;;;5.40;100.00;99927.31;4962880;28;20600;-72
2021/05/07 08:35:01;;;;;;;9.00;6.37;;;;;;;5.48;100.00;99934.94;4967516;28;20257;-72
2021/05/07 08:37:27;;;;;;;9.83;6.43;;;;;;;5.51;100.00;99942.63;4961512;28;20217;-72
2021/05/07 08:39:53;;;;;;;10.80;6.53;;;;;;;5.53;100.00;99945.22;4961110;28;20229;-72
2021/05/07 08:42:20;;;;;;;9.37;6.47;;;;;;;5.54;100.00;99946.91;4964113;28;20633;-72
2021/05/07 08:44:47;;;;;;;14.53;9.07;;;;;;;5.59;100.00;99952.84;4960655;28;20775;-72
2021/05/07 08:47:17;;;;;;;13.87;8.93;;;;;;;5.64;100.00;99958.81;4966000;28;20729;-72
2021/05/07 08:49:46;;;;;;;10.47;6.83;;;;;;;5.67;100.00;99964.78;4962503;28;20213;-72
2021/05/07 08:52:12;;;;;;;8.63;6.53;;;;;;;5.60;100.00;99965.75;4961354;28;20698;-72
2021/05/07 08:54:38;;;;;;;8.83;6.93;;;;;;;5.79;100.00;99966.31;4963331;28;20229;-72
2021/05/07 08:57:05;;;;;;;10.67;7.43;;;;;;;5.89;100.00;99964.41;4963798;28;20671;-72
2021/05/07 08:59:32;;;;;;;11.93;9.13;;;;;;;6.06;100.00;99961.56;4959393;28;20448;-72
2021/05/07 09:01:59;;;;;;;12.93;9.33;;;;;;;6.01;100.00;99971.13;4957913;28;20253;-72
2021/05/07 09:04:26;;;;;;;14.13;10.23;;;;;;;6.16;100.00;99970.88;4961957;28;20319;-72
2021/05/07 09:06:54;;;;;;;9.77;7.43;;;;;;;6.27;100.00;99973.25;4961791;28;20228;-72
2021/05/07 09:09:23;;;;;;;11.80;7.27;;;;;;;6.26;100.00;99968.94;4960900;28;20284;-72
2021/05/07 09:11:50;;;;;;;9.47;6.27;;;;;;;6.29;100.00;99968.06;4959880;28;20241;-72
2021/05/07 09:14:16;;;;;;;7.70;5.77;;;;;;;6.33;100.00;99972.28;4961247;28;20269;-72
2021/05/07 09:16:53;;;;;;;8.53;6.07;;;;;;;6.31;100.00;99974.03;4961751;28;20588;-72
2021/05/07 09:19:20;;;;;;;8.13;6.50;;;;;;;6.46;100.00;99966.00;4966750;28;20206;-72
2021/05/07 09:21:47;;;;;;;9.07;6.30;;;;;;;6.57;100.00;99974.38;4962194;28;20234;-72
2021/05/07 09:24:14;;;;;;;8.03;6.53;;;;;;;6.51;100.00;99968.47;4954972;28;20293;-72
2021/05/07 09:26:47;;;;;;;9.53;5.83;;;;;;;6.41;100.00;99970.41;4958978;28;20294;-72
2021/05/07 09:29:21;;;;;;;8.53;6.27;;;;;;;6.39;100.00;99973.03;4960702;28;20300;-73
2021/05/07 09:31:49;;;;;;;6.70;5.43;;;;;;;6.40;100.00;99969.56;4961162;28;20220;-72
2021/05/07 09:34:16;;;;;;;8.40;5.90;;;;;;;6.34;100.00;99971.41;4962216;28;20264;-72
2021/05/07 09:36:42;;;;;;;8.47;5.80;;;;;;;6.33;100.00;99965.38;4956634;28;20210;-72
2021/05/07 09:39:16;;;;;;;6.77;5.23;;;;;;;6.36;100.00;99964.47;4960536;28;20198;-72
2021/05/07 09:41:45;;;;;;;6.70;5.70;;;;;;;6.29;100.00;99973.22;4959182;28;20237;-72
2021/05/07 09:44:19;;;;;;;8.23;5.70;;;;;;;6.24;100.00;99981.94;4958291;28;20198;-72
2021/05/07 09:46:45;;;;;;;6.83;5.57;;;;;;;6.25;100.00;99983.63;4964479;28;20272;-72
2021/05/07 09:49:22;;;;;;;7.57;6.13;;;;;;;6.23;100.00;99981.97;4961968;28;20608;-72
2021/05/07 09:51:49;;;;;;;6.97;5.60;;;;;;;6.14;100.00;99990.75;4959341;28;20234;-72
2021/05/07 09:54:15;;;;;;;7.57;5.47;;;;;;;6.02;100.00;99998.75;4960293;28;20202;-72
2021/05/07 09:56:42;;;;;;;7.40;6.27;;;;;;;5.89;100.00;100018.75;4960722;28;20592;-72
2021/05/07 09:59:09;;;;;;;6.30;4.70;;;;;;;5.66;100.00;100019.13;4959212;28;20201;-72
2021/05/07 10:01:36;;;;;;;5.63;4.37;;;;;;;5.48;100.00;100022.84;4954066;28;20622;-72
2021/05/07 10:04:03;;;;;;;5.50;4.37;;;;;;;5.31;100.00;100030.81;4958535;28;20199;-72
2021/05/07 10:06:29;;;;;;;7.50;5.30;;;;;;;5.37;100.00;100032.50;4961399;28;20205;-72
2021/05/07 10:08:55;;;;;;;7.50;5.20;;;;;;;5.47;100.00;100028.88;4957131;28;20633;-72
2021/05/07 10:11:25;;;;;;;8.07;6.10;;;;;;;5.83;100.00;100027.47;4957510;28;20255;-72
2021/05/07 10:13:53;;;;;;;8.13;5.47;;;;;;;6.19;100.00;100027.78;4959541;28;20222;-72
2021/05/07 10:16:27;;;;;;;9.97;7.13;;;;;;;6.73;100.00;100025.91;4959861;28;20209;-72
2021/05/07 10:19:00;;;;;;;10.77;6.60;;;;;;;6.76;100.00;100034.47;4959446;28;20206;-72
2021/05/07 10:21:35;;;;;;;9.83;7.13;;;;;;;6.36;100.00;100045.56;4961136;28;20226;-72
2021/05/07 10:24:01;;;;;;;6.87;5.13;;;;;;;5.88;99.56;100058.44;4955983;28;20257;-72
2021/05/07 10:26:34;;;;;;;5.20;4.00;;;;;;;5.64;99.25;100081.22;4961123;28;20198;-72
2021/05/07 10:29:00;;;;;;;4.67;3.70;;;;;;;5.80;100.00;100081.84;4974892;28;20252;-72
2021/05/07 10:31:27;;;;;;;6.20;4.33;;;;;;;6.09;100.00;100079.72;4957869;28;20602;-72
2021/05/07 10:33:57;;;;;;;3.73;3.07;;;;;;;5.97;97.37;100085.94;4959941;28;20222;-72
2021/05/07 10:36:23;;;;;;;2.97;2.67;;;;;;;5.84;95.09;100104.22;4965316;28;20201;-72
2021/05/07 10:38:49;;;;;;;4.07;3.10;;;;;;;5.88;97.86;100086.91;4960253;28;20686;-72
2021/05/07 10:41:15;;;;;;;3.63;2.90;;;;;;;5.84;97.51;100098.16;4957844;28;20233;-72
2021/05/07 10:43:45;;;;;;;4.97;3.00;;;;;;;5.63;96.95;100109.72;4960125;28;20475;-72
2021/05/07 10:46:20;;;;;;;4.37;3.60;;;;;;;5.85;98.21;100107.66;4961901;28;20217;-72
2021/05/07 10:48:51;;;;;;;4.17;2.97;;;;;;;6.07;97.50;100111.66;4956454;28;20210;-72
2021/05/07 10:51:17;;;;;;;2.70;2.50;;;;;;;6.09;96.86;100121.13;4959117;28;20595;-72
2021/05/07 10:53:43;;;;;;;3.27;2.97;;;;;;;5.72;94.58;100142.31;4956632;28;20261;-72
2021/05/07 10:56:18;;;;;;;2.27;2.07;;;;;;;5.51;97.08;100136.59;4958431;28;20210;-72
2021/05/07 10:58:45;;;;;;;1.40;1.30;;;;;;;5.25;97.01;100145.50;4960001;28;20223;-72
2021/05/07 11:01:17;;;;;;;1.50;1.40;;;;;;;5.15;98.22;100161.13;4961370;28;20221;-72
2021/05/07 11:03:43;;;;;;;1.70;1.40;;;;;;;4.88;97.38;100166.59;4958492;28;20205;-72
2021/05/07 11:06:10;;;;;;;1.30;1.20;;;;;;;4.88;97.47;100169.16;4963533;28;20318;-72
2021/05/07 11:08:36;;;;;;;12.17;6.33;;;;;;;4.97;97.81;100167.38;4960476;28;20206;-72
2021/05/07 11:11:02;;;;;;;6.17;3.43;;;;;;;5.21;98.16;100182.63;4957853;28;20310;-72
2021/05/07 11:13:28;;;;;;;12.73;7.23;;;;;;;5.38;98.24;100178.97;4959141;28;20226;-72
2021/05/07 11:15:56;;;;;;;1.30;1.20;;;;;;;5.21;93.11;100200.72;4960451;28;20210;-72
2021/05/07 11:18:30;;;;;;;1.10;1.00;;;;;;;5.29;95.19;100217.00;4956748;28;20811;-72
2021/05/07 11:20:57;;;;;;;1.60;1.50;;;;;;;5.69;94.44;100206.16;4953881;28;20218;-72
2021/05/07 11:23:32;;;;;;;0.73;0.60;;;;;;;5.98;95.81;100209.25;4958592;28;20190;-72
2021/05/07 11:26:05;;;;;;;0.70;0.70;;;;;;;6.26;96.89;100199.38;4963119;28;20305;-72
2021/05/07 11:28:39;;;;;;;0.47;0.47;;;;;;;6.06;88.43;100244.50;4954931;28;20238;-72
2021/05/07 11:31:06;;;;;;;0.60;0.60;;;;;;;6.03;90.41;100234.22;4960064;28;20221;-72